Phoenix, Arizona
Traffic Map
Current Weather Conditions
Phoenix, Arizona
Scattered Clouds
Scattered Clouds
51°
Feels Like: 51°
Wind Chill: 51° Ceiling: Unl
Heat Index: 51° Visibility: 10mi
Dew Point: 42° Wind: 6mph
Humidity: 71% Direction: 70° (ENE)
Pressure: 30.01in Gusts: 0mph
Raw Report DataKPHX 190851Z 07005KT 10SM SCT250 11/06 A3001 RMK AO2 SLP157 T01060056 58003
Traffic Incident Summary
Active as of:
Severity:
Category:
InformationThere was an issue retrieving the traffic information for this location. Please try a different location or try again shortly.
Advertisements
Track Severe Weather on mobile